createdAt,value
2019-05-30T00:00:05.724Z,95.85
2019-05-30T00:04:46.793Z,96.12
2019-05-30T00:09:43.107Z,96.90
2019-05-30T00:14:37.698Z,98.67
2019-05-30T00:19:34.013Z,98.59
2019-05-30T00:24:28.568Z,98.32
2019-05-30T00:29:23.134Z,97.80
2019-05-30T00:34:17.737Z,97.56
2019-05-30T00:39:12.341Z,96.87
2019-05-30T00:44:06.980Z,96.69
2019-05-30T00:49:02.458Z,96.77
2019-05-30T00:53:58.475Z,97.37
2019-05-30T00:58:53.204Z,99.42
2019-05-30T01:03:47.810Z,100.00
2019-05-30T01:08:42.411Z,100.00
2019-05-30T01:13:37.007Z,100.00
2019-05-30T01:18:31.642Z,99.08
2019-05-30T01:23:26.250Z,100.00
2019-05-30T01:28:20.849Z,100.00
2019-05-30T01:33:15.528Z,100.00
2019-05-30T01:38:10.137Z,100.00
2019-05-30T01:43:06.090Z,100.00
2019-05-30T01:48:02.785Z,100.00
2019-05-30T01:52:58.373Z,100.00
2019-05-30T01:57:53.197Z,100.00
2019-05-30T02:02:47.792Z,100.00
2019-05-30T02:07:42.522Z,100.00
2019-05-30T02:12:37.141Z,98.92
2019-05-30T02:17:31.739Z,99.21
2019-05-30T02:22:26.335Z,97.94
2019-05-30T02:27:20.932Z,98.62
2019-05-30T02:32:15.600Z,98.83
2019-05-30T02:37:12.613Z,98.46
2019-05-30T02:42:07.471Z,98.27
2019-05-30T02:47:03.527Z,98.14
2019-05-30T02:51:58.755Z,97.47
2019-05-30T02:56:53.352Z,97.47
2019-05-30T03:02:00.862Z,97.23
2019-05-30T03:06:44.593Z,97.28
2019-05-30T03:11:39.326Z,97.04
2019-05-30T03:16:33.928Z,96.75
2019-05-30T03:21:28.597Z,96.64
2019-05-30T03:26:23.341Z,96.77
2019-05-30T03:31:28.751Z,97.02
2019-05-30T03:36:28.269Z,97.32
2019-05-30T03:41:14.137Z,97.13
2019-05-30T03:46:14.995Z,96.83
2019-05-30T03:51:14.884Z,97.10
2019-05-30T03:56:17.295Z,96.85
2019-05-30T04:01:16.456Z,96.86
2019-05-30T04:06:21.476Z,97.11
2019-05-30T04:11:20.965Z,97.07
2019-05-30T04:16:15.974Z,96.39
2019-05-30T04:21:13.128Z,95.93
2019-05-30T04:26:07.505Z,96.06
2019-05-30T04:31:02.252Z,95.99
2019-05-30T04:35:56.891Z,96.15
2019-05-30T04:40:52.062Z,96.32
2019-05-30T04:45:46.642Z,95.99
2019-05-30T04:50:41.236Z,95.94
2019-05-30T04:55:35.854Z,95.35
2019-05-30T05:00:30.480Z,95.48
2019-05-30T05:05:27.072Z,95.41
2019-05-30T05:10:22.552Z,95.50
2019-05-30T05:15:18.682Z,95.56
2019-05-30T05:20:15.160Z,95.82
2019-05-30T05:25:09.995Z,94.96
2019-05-30T05:30:08.119Z,94.54
2019-05-30T05:35:02.714Z,94.18
2019-05-30T05:39:57.308Z,92.38
2019-05-30T05:44:51.893Z,92.92
2019-05-30T05:49:46.563Z,91.74
2019-05-30T05:54:41.143Z,92.45
2019-05-30T05:59:35.751Z,92.66
2019-05-30T06:04:30.331Z,91.56
2019-05-30T06:09:24.930Z,91.40
2019-05-30T06:14:19.915Z,90.94
2019-05-30T06:19:14.866Z,89.52
2019-05-30T06:24:09.527Z,89.86
2019-05-30T06:29:04.188Z,90.57
2019-05-30T06:33:58.902Z,89.85
2019-05-30T06:38:53.560Z,88.26
2019-05-30T06:43:48.173Z,86.93
2019-05-30T06:48:42.762Z,85.23
2019-05-30T06:53:37.376Z,84.93
2019-05-30T06:58:47.115Z,84.38
2019-05-30T07:03:28.605Z,84.26
2019-05-30T07:08:23.245Z,83.96
2019-05-30T07:13:17.984Z,82.75
2019-05-30T07:18:12.633Z,80.65
2019-05-30T07:23:07.241Z,83.81
2019-05-30T07:28:01.838Z,82.68
2019-05-30T07:32:56.446Z,79.85
2019-05-30T07:37:51.042Z,79.30
2019-05-30T07:42:45.711Z,79.01
2019-05-30T07:47:40.352Z,77.88
2019-05-30T07:52:34.954Z,74.85
2019-05-30T07:57:30.264Z,73.03
2019-05-30T08:02:25.175Z,71.64
2019-05-30T08:07:19.760Z,69.96
2019-05-30T08:12:14.360Z,67.53
2019-05-30T08:17:08.967Z,68.74
2019-05-30T08:22:03.644Z,69.09
2019-05-30T08:26:58.223Z,69.05
2019-05-30T08:31:52.820Z,67.52
2019-05-30T08:36:47.403Z,64.02
2019-05-30T08:41:42.007Z,64.47
2019-05-30T08:46:37.849Z,65.36
2019-05-30T08:51:32.561Z,67.22
2019-05-30T08:56:28.513Z,66.97
2019-05-30T09:01:23.624Z,67.27
2019-05-30T09:06:18.210Z,63.78
2019-05-30T09:11:12.800Z,62.94
2019-05-30T09:16:07.420Z,61.18
2019-05-30T09:21:02.027Z,61.73
2019-05-30T09:25:56.706Z,61.27
2019-05-30T09:30:51.290Z,61.08
2019-05-30T09:35:46.954Z,59.91
2019-05-30T09:40:42.163Z,59.08
2019-05-30T09:45:38.147Z,60.60
2019-05-30T09:50:32.749Z,59.42
2019-05-30T09:55:28.160Z,57.99
2019-05-30T10:00:25.906Z,57.56
2019-05-30T10:05:24.679Z,57.65
2019-05-30T10:10:22.396Z,56.26
2019-05-30T10:15:17.800Z,55.24
2019-05-30T10:20:14.088Z,54.10
2019-05-30T10:25:09.385Z,51.80
2019-05-30T10:30:07.297Z,50.77
2019-05-30T10:35:01.958Z,47.50
2019-05-30T10:39:58.728Z,45.50
2019-05-30T10:44:53.439Z,47.25
2019-05-30T10:49:49.786Z,47.45
2019-05-30T10:54:45.030Z,46.81
2019-05-30T10:59:41.162Z,47.34
2019-05-30T11:04:35.739Z,45.92
2019-05-30T11:09:34.922Z,46.89
2019-05-30T11:14:29.501Z,43.95
2019-05-30T11:19:24.092Z,45.16
2019-05-30T11:24:18.720Z,44.31
2019-05-30T11:29:13.346Z,42.59
2019-05-30T11:34:07.938Z,41.28
2019-05-30T11:39:03.320Z,41.71
2019-05-30T11:43:57.922Z,43.91
2019-05-30T11:48:53.626Z,42.48
2019-05-30T11:53:49.723Z,41.03
2019-05-30T11:58:44.687Z,41.44
2019-05-30T12:03:39.297Z,41.43
2019-05-30T12:08:33.871Z,41.71
2019-05-30T12:13:28.476Z,41.22
2019-05-30T12:18:23.048Z,40.86
2019-05-30T12:23:17.650Z,41.49
2019-05-30T12:28:12.299Z,40.89
2019-05-30T12:33:06.946Z,39.58
2019-05-30T12:38:05.993Z,37.36
2019-05-30T12:42:59.849Z,38.54
2019-05-30T12:47:55.134Z,37.02
2019-05-30T12:52:50.129Z,37.38
2019-05-30T12:57:44.785Z,36.03
2019-05-30T13:02:39.430Z,36.31
2019-05-30T13:07:34.038Z,33.25
2019-05-30T13:12:28.617Z,31.81
2019-05-30T13:17:23.214Z,33.04
2019-05-30T13:22:17.851Z,33.12
2019-05-30T13:27:12.485Z,33.12
2019-05-30T13:32:07.126Z,33.77
2019-05-30T13:37:02.919Z,33.12
2019-05-30T13:41:57.789Z,33.53
2019-05-30T13:46:52.387Z,33.69
2019-05-30T13:51:46.942Z,33.19
2019-05-30T13:56:41.541Z,32.89
2019-05-30T14:01:36.133Z,32.10
2019-05-30T14:06:30.753Z,31.88
2019-05-30T14:11:25.326Z,33.40
2019-05-30T14:16:19.918Z,32.00
2019-05-30T14:21:14.495Z,26.77
2019-05-30T14:26:09.511Z,24.53
2019-05-30T14:31:05.030Z,25.61
2019-05-30T14:35:59.752Z,28.33
2019-05-30T14:40:54.323Z,31.08
2019-05-30T14:45:48.923Z,29.79
2019-05-30T14:50:43.564Z,30.52
2019-05-30T14:55:38.158Z,29.54
2019-05-30T15:00:32.803Z,29.62
2019-05-30T15:05:27.412Z,29.20
2019-05-30T15:10:22.302Z,29.25
2019-05-30T15:15:18.868Z,27.98
2019-05-30T15:20:15.346Z,27.55
2019-05-30T15:25:12.197Z,29.53
2019-05-30T15:30:12.634Z,28.92
2019-05-30T15:35:10.834Z,30.25
2019-05-30T15:40:10.954Z,30.06
2019-05-30T15:45:09.770Z,27.69
2019-05-30T15:50:08.300Z,27.78
2019-05-30T15:55:03.489Z,28.08
2019-05-30T15:59:58.058Z,29.23
2019-05-30T16:04:52.657Z,29.33
2019-05-30T16:09:47.622Z,28.78
2019-05-30T16:14:42.425Z,28.89
2019-05-30T16:19:37.011Z,29.18
2019-05-30T16:24:31.610Z,29.06
2019-05-30T16:29:26.190Z,28.07
2019-05-30T16:34:20.794Z,27.88
2019-05-30T16:39:16.029Z,27.74
2019-05-30T16:44:10.952Z,27.24
2019-05-30T16:49:05.592Z,28.00
2019-05-30T16:54:00.425Z,27.89
2019-05-30T16:58:54.999Z,27.66
2019-05-30T17:03:49.604Z,28.03
2019-05-30T17:08:44.194Z,26.60
2019-05-30T17:13:38.771Z,26.99
2019-05-30T17:18:33.364Z,27.62
2019-05-30T17:23:27.947Z,27.51
2019-05-30T17:28:22.547Z,28.50
2019-05-30T17:33:18.299Z,28.32
2019-05-30T17:38:13.447Z,28.90
2019-05-30T17:43:08.099Z,29.48
2019-05-30T17:48:15.623Z,30.05
2019-05-30T17:52:59.031Z,30.68
2019-05-30T17:57:53.635Z,31.78
2019-05-30T18:02:48.214Z,32.70
2019-05-30T18:07:42.824Z,32.98
2019-05-30T18:12:37.471Z,34.11
2019-05-30T18:17:32.078Z,34.37
2019-05-30T18:22:27.579Z,30.92
2019-05-30T18:27:23.760Z,31.16
2019-05-30T18:32:18.804Z,30.86
2019-05-30T18:37:13.475Z,32.14
2019-05-30T18:42:08.072Z,32.69
2019-05-30T18:47:02.697Z,33.88
2019-05-30T18:51:57.267Z,39.89
2019-05-30T18:56:51.883Z,40.43
2019-05-30T19:01:46.460Z,39.59
2019-05-30T19:06:41.053Z,40.09
2019-05-30T19:11:36.990Z,41.23
2019-05-30T19:16:32.422Z,42.43
2019-05-30T19:21:27.934Z,42.72
2019-05-30T19:26:22.869Z,43.45
2019-05-30T19:31:17.459Z,45.46
2019-05-30T19:36:12.037Z,46.13
2019-05-30T19:41:06.640Z,44.46
2019-05-30T19:46:01.208Z,47.45
2019-05-30T19:50:55.804Z,48.36
2019-05-30T19:55:50.380Z,48.54
2019-05-30T20:00:57.859Z,49.50
2019-05-30T20:05:42.242Z,47.76
2019-05-30T20:10:37.246Z,47.81
2019-05-30T20:15:33.329Z,48.68
2019-05-30T20:20:27.977Z,50.23
2019-05-30T20:25:22.726Z,51.52
2019-05-30T20:30:18.309Z,50.12
2019-05-30T20:35:13.205Z,51.94
2019-05-30T20:40:10.005Z,51.91
2019-05-30T20:45:10.139Z,53.13
2019-05-30T20:50:07.958Z,53.08
2019-05-30T20:55:02.549Z,52.70
2019-05-30T20:59:57.125Z,52.72
2019-05-30T21:04:51.813Z,53.89
2019-05-30T21:09:47.217Z,55.82
2019-05-30T21:14:45.731Z,57.24
2019-05-30T21:19:40.407Z,58.02
2019-05-30T21:24:36.324Z,58.22
2019-05-30T21:29:30.985Z,58.91
2019-05-30T21:34:25.727Z,58.82
2019-05-30T21:39:20.741Z,57.96
2019-05-30T21:44:15.368Z,58.28
2019-05-30T21:49:09.936Z,57.38
2019-05-30T21:54:04.599Z,57.53
2019-05-30T21:58:59.218Z,57.96
2019-05-30T22:03:53.810Z,59.09
2019-05-30T22:08:49.301Z,59.72
2019-05-30T22:13:45.297Z,60.14
2019-05-30T22:18:40.217Z,57.64
2019-05-30T22:23:35.008Z,58.77
2019-05-30T22:28:29.594Z,60.31
2019-05-30T22:33:24.197Z,61.21
2019-05-30T22:38:18.773Z,61.14
2019-05-30T22:43:24.920Z,60.37
2019-05-30T22:48:09.742Z,60.15
2019-05-30T22:53:04.420Z,60.06
2019-05-30T22:57:58.989Z,60.02
2019-05-30T23:02:54.052Z,61.25
2019-05-30T23:07:49.374Z,61.66
2019-05-30T23:12:44.267Z,62.00
2019-05-30T23:17:38.996Z,62.72
2019-05-30T23:22:33.610Z,63.89
2019-05-30T23:27:28.186Z,63.15
2019-05-30T23:32:22.781Z,64.24
2019-05-30T23:37:17.385Z,64.51
2019-05-30T23:42:11.988Z,64.27
2019-05-30T23:47:06.575Z,64.20
2019-05-30T23:52:01.186Z,64.88
2019-05-30T23:56:56.509Z,65.22
